sensor_id;sensor_type;location;lat;lon;timestamp;pressure;altitude;pressure_sealevel;temperature;humidity
67803;BME280;72185;51.378;-1.342;2023-12-20T00:01:50;100870.69;;;15.81;38.29
67803;BME280;72185;51.378;-1.342;2023-12-20T00:04:16;100863.73;;;16.29;37.66
67803;BME280;72185;51.378;-1.342;2023-12-20T00:06:42;100866.67;;;16.47;37.28
67803;BME280;72185;51.378;-1.342;2023-12-20T00:09:07;100873.34;;;16.57;37.13
67803;BME280;72185;51.378;-1.342;2023-12-20T00:11:33;100867.91;;;16.49;37.13
67803;BME280;72185;51.378;-1.342;2023-12-20T00:13:58;100861.61;;;16.44;37.13
67803;BME280;72185;51.378;-1.342;2023-12-20T00:16:24;100854.35;;;16.62;37.31
67803;BME280;72185;51.378;-1.342;2023-12-20T00:18:50;100856.03;;;16.68;37.05
67803;BME280;72185;51.378;-1.342;2023-12-20T00:21:15;100853.27;;;16.32;37.38
67803;BME280;72185;51.378;-1.342;2023-12-20T00:23:41;100856.83;;;16.50;37.39
67803;BME280;72185;51.378;-1.342;2023-12-20T00:26:06;100857.27;;;16.10;37.57
67803;BME280;72185;51.378;-1.342;2023-12-20T00:28:32;100861.16;;;16.16;37.51
67803;BME280;72185;51.378;-1.342;2023-12-20T00:30:57;100856.62;;;16.38;37.19
67803;BME280;72185;51.378;-1.342;2023-12-20T00:33:23;100856.40;;;16.50;37.33
67803;BME280;72185;51.378;-1.342;2023-12-20T00:35:48;100856.92;;;16.38;37.43
67803;BME280;72185;51.378;-1.342;2023-12-20T00:38:14;100861.52;;;16.52;37.26
67803;BME280;72185;51.378;-1.342;2023-12-20T00:40:40;100864.04;;;16.40;37.04
67803;BME280;72185;51.378;-1.342;2023-12-20T00:43:05;100865.84;;;16.44;36.97
67803;BME280;72185;51.378;-1.342;2023-12-20T00:45:31;100863.37;;;16.34;37.07
67803;BME280;72185;51.378;-1.342;2023-12-20T00:47:56;100865.53;;;16.41;37.28
67803;BME280;72185;51.378;-1.342;2023-12-20T00:50:22;100857.46;;;16.17;37.27
67803;BME280;72185;51.378;-1.342;2023-12-20T00:52:48;100849.87;;;16.21;37.13
67803;BME280;72185;51.378;-1.342;2023-12-20T00:55:13;100847.97;;;16.33;37.26
67803;BME280;72185;51.378;-1.342;2023-12-20T00:57:39;100845.88;;;16.43;36.84
67803;BME280;72185;51.378;-1.342;2023-12-20T01:00:05;100839.28;;;16.41;36.75
67803;BME280;72185;51.378;-1.342;2023-12-20T01:02:30;100846.79;;;16.52;36.99
67803;BME280;72185;51.378;-1.342;2023-12-20T01:04:55;100856.72;;;15.81;37.57
67803;BME280;72185;51.378;-1.342;2023-12-20T01:07:21;100857.39;;;15.91;37.32
67803;BME280;72185;51.378;-1.342;2023-12-20T01:09:47;100858.29;;;15.96;37.32
67803;BME280;72185;51.378;-1.342;2023-12-20T01:12:12;100858.76;;;16.09;37.08
67803;BME280;72185;51.378;-1.342;2023-12-20T01:14:38;100859.11;;;16.54;36.85
67803;BME280;72185;51.378;-1.342;2023-12-20T01:17:04;100864.86;;;15.94;37.55
67803;BME280;72185;51.378;-1.342;2023-12-20T01:19:29;100870.74;;;15.70;37.60
67803;BME280;72185;51.378;-1.342;2023-12-20T01:21:54;100872.11;;;15.66;37.59
67803;BME280;72185;51.378;-1.342;2023-12-20T01:24:20;100868.08;;;16.33;36.95
67803;BME280;72185;51.378;-1.342;2023-12-20T01:26:46;100877.85;;;15.62;37.72
67803;BME280;72185;51.378;-1.342;2023-12-20T01:29:11;100874.75;;;15.78;37.42
67803;BME280;72185;51.378;-1.342;2023-12-20T01:31:37;100873.73;;;15.70;37.57
67803;BME280;72185;51.378;-1.342;2023-12-20T01:34:02;100872.61;;;15.87;37.54
67803;BME280;72185;51.378;-1.342;2023-12-20T01:36:28;100873.01;;;16.41;36.85
67803;BME280;72185;51.378;-1.342;2023-12-20T01:38:53;100872.57;;;15.98;37.35
67803;BME280;72185;51.378;-1.342;2023-12-20T01:41:19;100872.48;;;16.16;37.18
67803;BME280;72185;51.378;-1.342;2023-12-20T01:43:45;100869.92;;;15.93;37.37
67803;BME280;72185;51.378;-1.342;2023-12-20T01:46:10;100870.31;;;16.32;36.79
67803;BME280;72185;51.378;-1.342;2023-12-20T01:48:36;100869.12;;;15.80;37.15
67803;BME280;72185;51.378;-1.342;2023-12-20T01:51:02;100866.94;;;15.48;37.64
67803;BME280;72185;51.378;-1.342;2023-12-20T01:53:27;100859.68;;;15.76;37.67
67803;BME280;72185;51.378;-1.342;2023-12-20T01:55:55;100857.94;;;16.28;36.91
67803;BME280;72185;51.378;-1.342;2023-12-20T01:58:19;100847.91;;;16.38;36.62
67803;BME280;72185;51.378;-1.342;2023-12-20T02:00:44;100852.01;;;15.51;37.79
67803;BME280;72185;51.378;-1.342;2023-12-20T02:03:10;100851.80;;;16.27;36.67
67803;BME280;72185;51.378;-1.342;2023-12-20T02:05:36;100852.56;;;15.86;37.24
67803;BME280;72185;51.378;-1.342;2023-12-20T02:08:01;100849.49;;;15.95;37.12
67803;BME280;72185;51.378;-1.342;2023-12-20T02:10:27;100854.59;;;16.08;36.91
67803;BME280;72185;51.378;-1.342;2023-12-20T02:12:52;100849.59;;;16.15;36.89
67803;BME280;72185;51.378;-1.342;2023-12-20T02:15:17;100850.24;;;15.33;37.51
67803;BME280;72185;51.378;-1.342;2023-12-20T02:17:44;100849.49;;;15.73;37.03
67803;BME280;72185;51.378;-1.342;2023-12-20T02:20:09;100850.52;;;16.14;36.87
67803;BME280;72185;51.378;-1.342;2023-12-20T02:22:34;100849.68;;;16.16;36.80
67803;BME280;72185;51.378;-1.342;2023-12-20T02:25:00;100847.42;;;16.07;36.93
67803;BME280;72185;51.378;-1.342;2023-12-20T02:27:25;100841.65;;;15.93;37.01
67803;BME280;72185;51.378;-1.342;2023-12-20T02:29:51;100842.60;;;15.48;37.37
67803;BME280;72185;51.378;-1.342;2023-12-20T02:32:17;100840.37;;;15.50;37.57
67803;BME280;72185;51.378;-1.342;2023-12-20T02:34:42;100841.90;;;15.64;37.40
67803;BME280;72185;51.378;-1.342;2023-12-20T02:37:08;100841.92;;;15.82;37.07
67803;BME280;72185;51.378;-1.342;2023-12-20T02:39:33;100837.15;;;16.37;36.84
67803;BME280;72185;51.378;-1.342;2023-12-20T02:41:59;100838.54;;;16.00;36.92
67803;BME280;72185;51.378;-1.342;2023-12-20T02:44:25;100833.62;;;15.36;37.37
67803;BME280;72185;51.378;-1.342;2023-12-20T02:46:50;100830.14;;;15.59;37.49
67803;BME280;72185;51.378;-1.342;2023-12-20T02:49:16;100832.32;;;15.75;37.45
67803;BME280;72185;51.378;-1.342;2023-12-20T02:51:41;100835.32;;;15.80;37.07
67803;BME280;72185;51.378;-1.342;2023-12-20T02:54:07;100825.12;;;16.04;36.61
67803;BME280;72185;51.378;-1.342;2023-12-20T02:56:33;100822.29;;;15.82;36.98
67803;BME280;72185;51.378;-1.342;2023-12-20T02:58:58;100822.58;;;15.94;36.83
67803;BME280;72185;51.378;-1.342;2023-12-20T03:01:24;100829.17;;;15.91;36.52
67803;BME280;72185;51.378;-1.342;2023-12-20T03:03:50;100823.08;;;15.84;36.62
67803;BME280;72185;51.378;-1.342;2023-12-20T03:06:16;100825.78;;;15.91;36.89
67803;BME280;72185;51.378;-1.342;2023-12-20T03:08:41;100819.16;;;15.84;37.10
67803;BME280;72185;51.378;-1.342;2023-12-20T03:11:06;100814.46;;;15.34;37.84
67803;BME280;72185;51.378;-1.342;2023-12-20T03:13:32;100812.40;;;15.80;36.87
67803;BME280;72185;51.378;-1.342;2023-12-20T03:15:58;100818.99;;;15.82;37.15
67803;BME280;72185;51.378;-1.342;2023-12-20T03:18:23;100818.06;;;16.03;36.92
67803;BME280;72185;51.378;-1.342;2023-12-20T03:20:49;100827.01;;;15.40;37.44
67803;BME280;72185;51.378;-1.342;2023-12-20T03:23:14;100831.93;;;16.27;36.59
67803;BME280;72185;51.378;-1.342;2023-12-20T03:25:40;100828.00;;;15.70;37.05
67803;BME280;72185;51.378;-1.342;2023-12-20T03:28:06;100827.15;;;15.50;37.26
67803;BME280;72185;51.378;-1.342;2023-12-20T03:30:31;100834.07;;;15.50;37.30
67803;BME280;72185;51.378;-1.342;2023-12-20T03:32:57;100833.97;;;15.74;36.78
67803;BME280;72185;51.378;-1.342;2023-12-20T03:35:22;100838.72;;;15.76;36.90
67803;BME280;72185;51.378;-1.342;2023-12-20T03:37:48;100834.31;;;15.93;36.92
67803;BME280;72185;51.378;-1.342;2023-12-20T03:40:14;100833.30;;;15.97;36.78
67803;BME280;72185;51.378;-1.342;2023-12-20T03:42:39;100825.87;;;15.57;36.94
67803;BME280;72185;51.378;-1.342;2023-12-20T03:45:06;100823.43;;;16.10;36.56
67803;BME280;72185;51.378;-1.342;2023-12-20T03:47:30;100822.17;;;15.94;36.78
67803;BME280;72185;51.378;-1.342;2023-12-20T03:49:56;100812.87;;;15.56;36.95
67803;BME280;72185;51.378;-1.342;2023-12-20T03:52:22;100813.37;;;15.21;37.36
67803;BME280;72185;51.378;-1.342;2023-12-20T03:54:47;100816.09;;;15.42;37.16
67803;BME280;72185;51.378;-1.342;2023-12-20T03:57:13;100806.42;;;15.70;37.02
67803;BME280;72185;51.378;-1.342;2023-12-20T03:59:38;100812.93;;;15.98;36.82
67803;BME280;72185;51.378;-1.342;2023-12-20T04:02:04;100815.71;;;15.25;37.26
67803;BME280;72185;51.378;-1.342;2023-12-20T04:04:30;100820.44;;;15.42;37.11
67803;BME280;72185;51.378;-1.342;2023-12-20T04:06:55;100823.08;;;15.30;37.24
67803;BME280;72185;51.378;-1.342;2023-12-20T04:09:21;100813.21;;;15.82;36.56
67803;BME280;72185;51.378;-1.342;2023-12-20T04:11:46;100811.63;;;15.72;36.61
67803;BME280;72185;51.378;-1.342;2023-12-20T04:14:12;100808.42;;;16.10;36.38
67803;BME280;72185;51.378;-1.342;2023-12-20T04:16:38;100810.71;;;15.89;36.41
67803;BME280;72185;51.378;-1.342;2023-12-20T04:19:03;100800.50;;;15.99;36.31
67803;BME280;72185;51.378;-1.342;2023-12-20T04:21:29;100803.00;;;15.91;36.18
67803;BME280;72185;51.378;-1.342;2023-12-20T04:23:54;100807.86;;;15.41;36.93
67803;BME280;72185;51.378;-1.342;2023-12-20T04:26:20;100809.54;;;15.66;37.00
67803;BME280;72185;51.378;-1.342;2023-12-20T04:28:46;100813.99;;;16.05;36.52
67803;BME280;72185;51.378;-1.342;2023-12-20T04:31:11;100810.26;;;16.00;36.53
67803;BME280;72185;51.378;-1.342;2023-12-20T04:33:37;100809.57;;;15.72;36.51
67803;BME280;72185;51.378;-1.342;2023-12-20T04:36:03;100815.68;;;15.82;36.77
67803;BME280;72185;51.378;-1.342;2023-12-20T04:38:28;100815.53;;;16.09;36.38
67803;BME280;72185;51.378;-1.342;2023-12-20T04:40:54;100815.12;;;16.16;36.32
67803;BME280;72185;51.378;-1.342;2023-12-20T04:43:19;100817.48;;;15.93;36.09
67803;BME280;72185;51.378;-1.342;2023-12-20T04:45:45;100816.78;;;16.15;36.34
67803;BME280;72185;51.378;-1.342;2023-12-20T04:48:12;100819.61;;;15.69;36.18
67803;BME280;72185;51.378;-1.342;2023-12-20T04:50:36;100826.21;;;15.92;36.14
67803;BME280;72185;51.378;-1.342;2023-12-20T04:53:02;100826.00;;;16.03;36.31
67803;BME280;72185;51.378;-1.342;2023-12-20T04:55:27;100822.25;;;16.01;36.07
67803;BME280;72185;51.378;-1.342;2023-12-20T04:57:53;100824.19;;;16.24;35.97
67803;BME280;72185;51.378;-1.342;2023-12-20T05:00:19;100817.96;;;15.94;36.08
67803;BME280;72185;51.378;-1.342;2023-12-20T05:02:44;100814.54;;;16.00;36.05
67803;BME280;72185;51.378;-1.342;2023-12-20T05:05:10;100809.75;;;16.07;36.30
67803;BME280;72185;51.378;-1.342;2023-12-20T05:07:35;100814.94;;;15.99;36.10
67803;BME280;72185;51.378;-1.342;2023-12-20T05:10:02;100798.33;;;16.26;36.07
67803;BME280;72185;51.378;-1.342;2023-12-20T05:12:27;100808.91;;;16.13;36.18
67803;BME280;72185;51.378;-1.342;2023-12-20T05:14:52;100806.68;;;16.11;36.19
67803;BME280;72185;51.378;-1.342;2023-12-20T05:17:18;100803.66;;;15.91;36.07
67803;BME280;72185;51.378;-1.342;2023-12-20T05:19:43;100794.47;;;16.26;35.98
67803;BME280;72185;51.378;-1.342;2023-12-20T05:22:09;100790.18;;;16.07;35.88
67803;BME280;72185;51.378;-1.342;2023-12-20T05:24:35;100786.29;;;16.38;35.72
67803;BME280;72185;51.378;-1.342;2023-12-20T05:27:00;100787.54;;;15.97;36.02
67803;BME280;72185;51.378;-1.342;2023-12-20T05:29:26;100787.92;;;15.92;35.90
67803;BME280;72185;51.378;-1.342;2023-12-20T05:31:51;100788.19;;;16.23;35.95
67803;BME280;72185;51.378;-1.342;2023-12-20T05:34:17;100790.25;;;15.97;36.31
67803;BME280;72185;51.378;-1.342;2023-12-20T05:36:43;100786.31;;;15.92;36.42
67803;BME280;72185;51.378;-1.342;2023-12-20T05:39:08;100785.48;;;15.33;36.87
67803;BME280;72185;51.378;-1.342;2023-12-20T05:41:34;100785.51;;;15.84;36.31
67803;BME280;72185;51.378;-1.342;2023-12-20T05:44:00;100775.69;;;16.16;36.28
67803;BME280;72185;51.378;-1.342;2023-12-20T05:46:26;100771.59;;;16.27;36.19
67803;BME280;72185;51.378;-1.342;2023-12-20T05:48:51;100780.18;;;16.24;36.27
67803;BME280;72185;51.378;-1.342;2023-12-20T05:51:16;100783.66;;;16.30;36.14
67803;BME280;72185;51.378;-1.342;2023-12-20T05:53:42;100778.64;;;16.42;36.08
67803;BME280;72185;51.378;-1.342;2023-12-20T05:56:08;100791.03;;;16.06;36.24
67803;BME280;72185;51.378;-1.342;2023-12-20T05:58:33;100781.57;;;16.43;36.12
67803;BME280;72185;51.378;-1.342;2023-12-20T06:00:59;100774.99;;;16.41;35.83
67803;BME280;72185;51.378;-1.342;2023-12-20T06:03:24;100769.91;;;16.74;35.82
67803;BME280;72185;51.378;-1.342;2023-12-20T06:05:50;100778.54;;;16.36;35.76
67803;BME280;72185;51.378;-1.342;2023-12-20T06:08:16;100775.11;;;16.50;35.63
67803;BME280;72185;51.378;-1.342;2023-12-20T06:10:41;100768.63;;;16.83;35.52
67803;BME280;72185;51.378;-1.342;2023-12-20T06:13:07;100763.80;;;16.71;35.67
67803;BME280;72185;51.378;-1.342;2023-12-20T06:15:33;100766.04;;;17.02;35.66
67803;BME280;72185;51.378;-1.342;2023-12-20T06:17:58;100769.62;;;16.70;35.76
67803;BME280;72185;51.378;-1.342;2023-12-20T06:20:24;100777.79;;;16.63;35.66
67803;BME280;72185;51.378;-1.342;2023-12-20T06:22:50;100782.31;;;17.10;35.73
67803;BME280;72185;51.378;-1.342;2023-12-20T06:25:15;100788.16;;;16.75;35.81
67803;BME280;72185;51.378;-1.342;2023-12-20T06:27:40;100787.67;;;16.97;35.88
67803;BME280;72185;51.378;-1.342;2023-12-20T06:30:07;100786.12;;;16.80;35.58
67803;BME280;72185;51.378;-1.342;2023-12-20T06:32:32;100788.30;;;17.05;35.60
67803;BME280;72185;51.378;-1.342;2023-12-20T06:34:57;100785.27;;;16.96;35.73
67803;BME280;72185;51.378;-1.342;2023-12-20T06:37:23;100786.63;;;16.81;35.64
67803;BME280;72185;51.378;-1.342;2023-12-20T06:39:48;100782.03;;;17.24;35.77
67803;BME280;72185;51.378;-1.342;2023-12-20T06:42:14;100781.31;;;17.12;35.64
67803;BME280;72185;51.378;-1.342;2023-12-20T06:44:40;100785.09;;;17.09;35.70
67803;BME280;72185;51.378;-1.342;2023-12-20T06:47:05;100780.14;;;17.02;35.88
67803;BME280;72185;51.378;-1.342;2023-12-20T06:49:31;100784.09;;;17.52;35.68
67803;BME280;72185;51.378;-1.342;2023-12-20T06:51:56;100780.85;;;17.08;35.57
67803;BME280;72185;51.378;-1.342;2023-12-20T06:54:22;100779.21;;;17.13;35.80
67803;BME280;72185;51.378;-1.342;2023-12-20T06:56:48;100781.94;;;17.59;35.59
67803;BME280;72185;51.378;-1.342;2023-12-20T06:59:13;100781.62;;;17.13;35.65
67803;BME280;72185;51.378;-1.342;2023-12-20T07:01:39;100781.49;;;17.48;35.52
67803;BME280;72185;51.378;-1.342;2023-12-20T07:04:05;100775.15;;;17.37;35.64
67803;BME280;72185;51.378;-1.342;2023-12-20T07:06:30;100776.56;;;17.40;35.65
67803;BME280;72185;51.378;-1.342;2023-12-20T07:08:56;100779.33;;;17.19;35.62
67803;BME280;72185;51.378;-1.342;2023-12-20T07:11:22;100767.39;;;17.55;35.53
67803;BME280;72185;51.378;-1.342;2023-12-20T07:13:47;100760.81;;;17.37;35.85
67803;BME280;72185;51.378;-1.342;2023-12-20T07:16:12;100751.87;;;17.35;35.92
67803;BME280;72185;51.378;-1.342;2023-12-20T07:18:38;100742.62;;;17.25;35.67
67803;BME280;72185;51.378;-1.342;2023-12-20T07:21:04;100732.73;;;17.77;35.67
67803;BME280;72185;51.378;-1.342;2023-12-20T07:23:29;100731.14;;;17.50;35.73
67803;BME280;72185;51.378;-1.342;2023-12-20T07:25:55;100722.27;;;16.90;36.16
67803;BME280;72185;51.378;-1.342;2023-12-20T07:28:21;100716.75;;;17.24;35.74
67803;BME280;72185;51.378;-1.342;2023-12-20T07:30:46;100721.05;;;17.27;35.83
67803;BME280;72185;51.378;-1.342;2023-12-20T07:33:12;100719.00;;;17.51;35.75
67803;BME280;72185;51.378;-1.342;2023-12-20T07:35:37;100724.32;;;17.29;35.95
67803;BME280;72185;51.378;-1.342;2023-12-20T07:38:03;100731.51;;;17.46;35.85
67803;BME280;72185;51.378;-1.342;2023-12-20T07:40:28;100744.26;;;17.61;35.68
67803;BME280;72185;51.378;-1.342;2023-12-20T07:42:54;100739.08;;;17.58;35.84
67803;BME280;72185;51.378;-1.342;2023-12-20T07:45:20;100750.36;;;17.07;36.06
67803;BME280;72185;51.378;-1.342;2023-12-20T07:47:45;100756.26;;;17.36;35.72
67803;BME280;72185;51.378;-1.342;2023-12-20T07:50:11;100755.11;;;17.19;35.91
67803;BME280;72185;51.378;-1.342;2023-12-20T07:52:36;100740.66;;;17.54;35.72
67803;BME280;72185;51.378;-1.342;2023-12-20T07:55:02;100739.61;;;17.55;35.76
67803;BME280;72185;51.378;-1.342;2023-12-20T07:57:29;100755.33;;;17.28;35.83
67803;BME280;72185;51.378;-1.342;2023-12-20T07:59:53;100762.36;;;17.18;35.85
67803;BME280;72185;51.378;-1.342;2023-12-20T08:02:19;100771.81;;;17.65;35.97
67803;BME280;72185;51.378;-1.342;2023-12-20T08:04:44;100775.00;;;17.48;35.90
67803;BME280;72185;51.378;-1.342;2023-12-20T08:07:10;100778.11;;;17.37;35.91
67803;BME280;72185;51.378;-1.342;2023-12-20T08:09:35;100782.93;;;17.20;35.85
67803;BME280;72185;51.378;-1.342;2023-12-20T08:12:01;100781.34;;;17.58;35.64
67803;BME280;72185;51.378;-1.342;2023-12-20T08:14:27;100785.21;;;17.20;35.88
67803;BME280;72185;51.378;-1.342;2023-12-20T08:16:52;100795.22;;;17.51;35.67
67803;BME280;72185;51.378;-1.342;2023-12-20T08:19:18;100791.69;;;17.40;35.61
67803;BME280;72185;51.378;-1.342;2023-12-20T08:21:43;100799.72;;;17.22;35.87
67803;BME280;72185;51.378;-1.342;2023-12-20T08:24:09;100798.21;;;17.52;35.71
67803;BME280;72185;51.378;-1.342;2023-12-20T08:26:35;100798.56;;;17.10;35.97
67803;BME280;72185;51.378;-1.342;2023-12-20T08:29:00;100803.28;;;17.16;35.86
67803;BME280;72185;51.378;-1.342;2023-12-20T08:31:26;100795.61;;;17.27;35.75
67803;BME280;72185;51.378;-1.342;2023-12-20T08:33:51;100799.77;;;17.27;35.68
67803;BME280;72185;51.378;-1.342;2023-12-20T08:36:17;100803.51;;;17.51;35.76
67803;BME280;72185;51.378;-1.342;2023-12-20T08:38:43;100804.62;;;17.23;35.78
67803;BME280;72185;51.378;-1.342;2023-12-20T08:41:08;100805.66;;;17.50;35.70
67803;BME280;72185;51.378;-1.342;2023-12-20T08:43:34;100808.66;;;17.55;35.63
67803;BME280;72185;51.378;-1.342;2023-12-20T08:45:59;100810.91;;;17.44;35.84
67803;BME280;72185;51.378;-1.342;2023-12-20T08:48:27;100804.09;;;17.84;35.59
67803;BME280;72185;51.378;-1.342;2023-12-20T08:50:51;100794.73;;;17.19;35.76
67803;BME280;72185;51.378;-1.342;2023-12-20T08:53:16;100788.96;;;17.45;35.79
67803;BME280;72185;51.378;-1.342;2023-12-20T08:55:42;100781.35;;;17.50;35.69
67803;BME280;72185;51.378;-1.342;2023-12-20T08:58:08;100778.58;;;17.35;35.91
67803;BME280;72185;51.378;-1.342;2023-12-20T09:00:33;100771.73;;;17.21;35.69
67803;BME280;72185;51.378;-1.342;2023-12-20T09:02:59;100776.29;;;17.32;35.87
67803;BME280;72185;51.378;-1.342;2023-12-20T09:05:24;100777.20;;;17.24;35.67
67803;BME280;72185;51.378;-1.342;2023-12-20T09:07:50;100779.11;;;16.93;35.98
67803;BME280;72185;51.378;-1.342;2023-12-20T09:10:16;100780.86;;;17.22;35.71
67803;BME280;72185;51.378;-1.342;2023-12-20T09:12:41;100772.17;;;17.34;35.52
67803;BME280;72185;51.378;-1.342;2023-12-20T09:15:07;100764.38;;;17.08;35.90
67803;BME280;72185;51.378;-1.342;2023-12-20T09:17:32;100763.97;;;17.28;35.63
67803;BME280;72185;51.378;-1.342;2023-12-20T09:19:58;100763.52;;;17.47;35.62
67803;BME280;72185;51.378;-1.342;2023-12-20T09:22:24;100763.53;;;17.06;35.91
67803;BME280;72185;51.378;-1.342;2023-12-20T09:24:49;100770.55;;;17.29;35.55
67803;BME280;72185;51.378;-1.342;2023-12-20T09:27:15;100780.73;;;17.41;35.74
67803;BME280;72185;51.378;-1.342;2023-12-20T09:29:40;100783.90;;;17.47;35.74
67803;BME280;72185;51.378;-1.342;2023-12-20T09:32:07;100781.33;;;17.60;35.77
67803;BME280;72185;51.378;-1.342;2023-12-20T09:34:32;100779.72;;;17.31;35.89
67803;BME280;72185;51.378;-1.342;2023-12-20T09:36:57;100788.80;;;17.72;35.75
67803;BME280;72185;51.378;-1.342;2023-12-20T09:39:23;100785.48;;;17.65;35.84
67803;BME280;72185;51.378;-1.342;2023-12-20T09:41:56;100788.87;;;17.56;35.72
67803;BME280;72185;51.378;-1.342;2023-12-20T09:44:15;100781.29;;;17.70;35.76
67803;BME280;72185;51.378;-1.342;2023-12-20T09:46:43;100779.11;;;17.91;35.53
67803;BME280;72185;51.378;-1.342;2023-12-20T09:49:06;100785.69;;;17.76;35.47
67803;BME280;72185;51.378;-1.342;2023-12-20T09:51:31;100788.59;;;17.67;35.61
67803;BME280;72185;51.378;-1.342;2023-12-20T09:53:57;100779.83;;;17.77;35.72
67803;BME280;72185;51.378;-1.342;2023-12-20T09:56:23;100771.04;;;17.96;35.55
67803;BME280;72185;51.378;-1.342;2023-12-20T09:58:48;100770.93;;;17.68;35.42
67803;BME280;72185;51.378;-1.342;2023-12-20T10:01:14;100778.07;;;17.63;35.58
67803;BME280;72185;51.378;-1.342;2023-12-20T10:03:39;100780.65;;;17.59;35.59
67803;BME280;72185;51.378;-1.342;2023-12-20T10:06:04;100780.65;;;17.89;35.54
67803;BME280;72185;51.378;-1.342;2023-12-20T10:08:30;100786.36;;;17.61;35.64
67803;BME280;72185;51.378;-1.342;2023-12-20T10:10:56;100788.22;;;17.74;35.75
67803;BME280;72185;51.378;-1.342;2023-12-20T10:13:21;100792.38;;;17.65;35.62
67803;BME280;72185;51.378;-1.342;2023-12-20T10:15:47;100798.43;;;17.70;35.51
67803;BME280;72185;51.378;-1.342;2023-12-20T10:18:12;100792.91;;;17.77;35.46
67803;BME280;72185;51.378;-1.342;2023-12-20T10:20:40;100790.09;;;17.77;35.50
67803;BME280;72185;51.378;-1.342;2023-12-20T10:23:04;100786.48;;;17.70;35.72
67803;BME280;72185;51.378;-1.342;2023-12-20T10:25:29;100785.32;;;17.76;35.57
67803;BME280;72185;51.378;-1.342;2023-12-20T10:30:20;100774.69;;;17.77;35.47
67803;BME280;72185;51.378;-1.342;2023-12-20T10:32:46;100786.60;;;17.85;35.35
67803;BME280;72185;51.378;-1.342;2023-12-20T10:35:12;100797.44;;;17.74;35.48
67803;BME280;72185;51.378;-1.342;2023-12-20T10:37:37;100795.96;;;17.80;35.41
67803;BME280;72185;51.378;-1.342;2023-12-20T10:40:04;100795.09;;;17.80;35.41
67803;BME280;72185;51.378;-1.342;2023-12-20T10:42:29;100802.81;;;17.72;35.45
67803;BME280;72185;51.378;-1.342;2023-12-20T10:44:54;100803.17;;;17.70;35.43
67803;BME280;72185;51.378;-1.342;2023-12-20T10:47:20;100805.78;;;17.93;35.42
67803;BME280;72185;51.378;-1.342;2023-12-20T10:49:46;100787.18;;;18.04;35.26
67803;BME280;72185;51.378;-1.342;2023-12-20T10:52:12;100784.28;;;17.98;35.33
67803;BME280;72185;51.378;-1.342;2023-12-20T10:54:36;100763.33;;;17.72;35.38
67803;BME280;72185;51.378;-1.342;2023-12-20T10:57:05;100752.36;;;17.77;35.26
67803;BME280;72185;51.378;-1.342;2023-12-20T10:59:28;100745.43;;;17.65;35.39
67803;BME280;72185;51.378;-1.342;2023-12-20T11:01:54;100732.29;;;17.73;35.26
67803;BME280;72185;51.378;-1.342;2023-12-20T11:04:22;100725.66;;;17.99;35.23
67803;BME280;72185;51.378;-1.342;2023-12-20T11:06:49;100727.50;;;17.85;35.09
67803;BME280;72185;51.378;-1.342;2023-12-20T11:09:14;100714.91;;;17.64;35.35
67803;BME280;72185;51.378;-1.342;2023-12-20T11:11:39;100715.72;;;17.77;35.21
67803;BME280;72185;51.378;-1.342;2023-12-20T11:14:05;100713.19;;;17.49;35.23
67803;BME280;72185;51.378;-1.342;2023-12-20T11:16:26;100697.89;;;17.69;35.23
67803;BME280;72185;51.378;-1.342;2023-12-20T11:18:52;100682.94;;;17.66;35.27
67803;BME280;72185;51.378;-1.342;2023-12-20T11:21:18;100669.27;;;17.91;35.24
67803;BME280;72185;51.378;-1.342;2023-12-20T11:23:43;100662.29;;;17.60;35.32
67803;BME280;72185;51.378;-1.342;2023-12-20T11:26:09;100660.91;;;17.62;35.30
67803;BME280;72185;51.378;-1.342;2023-12-20T11:28:34;100667.09;;;17.74;35.10
67803;BME280;72185;51.378;-1.342;2023-12-20T11:31:01;100659.70;;;17.73;35.14
67803;BME280;72185;51.378;-1.342;2023-12-20T11:33:27;100660.84;;;17.67;35.21
67803;BME280;72185;51.378;-1.342;2023-12-20T11:35:51;100662.81;;;17.80;35.02
67803;BME280;72185;51.378;-1.342;2023-12-20T11:38:20;100660.06;;;17.60;35.28
67803;BME280;72185;51.378;-1.342;2023-12-20T11:40:43;100667.21;;;17.75;35.12
67803;BME280;72185;51.378;-1.342;2023-12-20T11:43:08;100664.10;;;17.84;35.00
67803;BME280;72185;51.378;-1.342;2023-12-20T11:45:34;100665.53;;;17.99;35.11
67803;BME280;72185;51.378;-1.342;2023-12-20T11:47:59;100649.74;;;17.77;35.22
67803;BME280;72185;51.378;-1.342;2023-12-20T11:50:25;100640.67;;;17.88;35.34
67803;BME280;72185;51.378;-1.342;2023-12-20T11:52:51;100641.46;;;17.66;35.44
67803;BME280;72185;51.378;-1.342;2023-12-20T11:55:16;100636.59;;;18.10;35.43
67803;BME280;72185;51.378;-1.342;2023-12-20T11:57:42;100636.66;;;17.61;35.49
67803;BME280;72185;51.378;-1.342;2023-12-20T12:00:07;100627.48;;;17.57;35.51
67803;BME280;72185;51.378;-1.342;2023-12-20T12:02:32;100630.72;;;17.54;35.62
67803;BME280;72185;51.378;-1.342;2023-12-20T12:04:59;100616.78;;;17.87;35.56
67803;BME280;72185;51.378;-1.342;2023-12-20T12:07:23;100613.13;;;17.81;35.43
67803;BME280;72185;51.378;-1.342;2023-12-20T12:09:49;100600.86;;;17.76;35.36
67803;BME280;72185;51.378;-1.342;2023-12-20T12:12:15;100598.87;;;17.97;35.13
67803;BME280;72185;51.378;-1.342;2023-12-20T12:14:40;100601.35;;;17.83;35.31
67803;BME280;72185;51.378;-1.342;2023-12-20T12:17:10;100589.34;;;17.89;35.27
67803;BME280;72185;51.378;-1.342;2023-12-20T12:19:31;100578.82;;;17.83;35.33
67803;BME280;72185;51.378;-1.342;2023-12-20T12:22:05;100568.54;;;17.84;35.33
67803;BME280;72185;51.378;-1.342;2023-12-20T12:24:23;100565.62;;;17.77;35.43
67803;BME280;72185;51.378;-1.342;2023-12-20T12:26:50;100552.45;;;17.67;35.52
67803;BME280;72185;51.378;-1.342;2023-12-20T12:29:14;100548.29;;;17.83;35.33
67803;BME280;72185;51.378;-1.342;2023-12-20T12:31:39;100530.82;;;17.93;35.22
67803;BME280;72185;51.378;-1.342;2023-12-20T12:34:05;100524.42;;;17.87;35.24